sensor_id;sensor_type;location;lat;lon;timestamp;temperature;humidity
11446;DHT22;5779;64.178;15.432;2023-03-13T00:01:35;-18.00;99.90
11446;DHT22;5779;64.178;15.432;2023-03-13T00:04:22;-18.50;99.90
11446;DHT22;5779;64.178;15.432;2023-03-13T00:07:09;-18.60;99.90
11446;DHT22;5779;64.178;15.432;2023-03-13T00:09:55;-18.60;99.90
11446;DHT22;5779;64.178;15.432;2023-03-13T00:12:42;-18.50;99.90
11446;DHT22;5779;64.178;15.432;2023-03-13T00:15:29;-18.40;99.90
11446;DHT22;5779;64.178;15.432;2023-03-13T00:18:17;-18.20;99.90
11446;DHT22;5779;64.178;15.432;2023-03-13T00:21:06;-18.30;99.90
11446;DHT22;5779;64.178;15.432;2023-03-13T00:23:53;-18.10;99.90
11446;DHT22;5779;64.178;15.432;2023-03-13T00:26:40;-18.10;99.90
11446;DHT22;5779;64.178;15.432;2023-03-13T00:29:27;-18.10;99.90
11446;DHT22;5779;64.178;15.432;2023-03-13T00:32:14;-18.10;99.90
11446;DHT22;5779;64.178;15.432;2023-03-13T00:35:03;-18.20;99.90
11446;DHT22;5779;64.178;15.432;2023-03-13T00:37:50;-18.50;99.90
11446;DHT22;5779;64.178;15.432;2023-03-13T00:40:37;-18.40;99.90
11446;DHT22;5779;64.178;15.432;2023-03-13T00:43:24;-18.40;99.90
11446;DHT22;5779;64.178;15.432;2023-03-13T00:46:12;-18.30;99.90
11446;DHT22;5779;64.178;15.432;2023-03-13T00:48:59;-18.20;99.90
11446;DHT22;5779;64.178;15.432;2023-03-13T00:51:47;-18.20;99.90
11446;DHT22;5779;64.178;15.432;2023-03-13T00:54:34;-18.20;99.90
11446;DHT22;5779;64.178;15.432;2023-03-13T00:57:21;-18.10;99.90
11446;DHT22;5779;64.178;15.432;2023-03-13T01:00:10;-18.20;99.90
11446;DHT22;5779;64.178;15.432;2023-03-13T01:02:56;-18.60;99.90
11446;DHT22;5779;64.178;15.432;2023-03-13T01:05:43;-19.00;99.90
11446;DHT22;5779;64.178;15.432;2023-03-13T01:08:31;-19.00;99.90
11446;DHT22;5779;64.178;15.432;2023-03-13T01:11:20;-18.60;99.90
11446;DHT22;5779;64.178;15.432;2023-03-13T01:14:08;-18.40;99.90
11446;DHT22;5779;64.178;15.432;2023-03-13T01:16:55;-18.40;99.90
11446;DHT22;5779;64.178;15.432;2023-03-13T01:19:42;-18.30;99.90
11446;DHT22;5779;64.178;15.432;2023-03-13T01:22:29;-18.40;99.90
11446;DHT22;5779;64.178;15.432;2023-03-13T01:25:17;-18.40;99.90
11446;DHT22;5779;64.178;15.432;2023-03-13T01:28:05;-18.50;99.90
11446;DHT22;5779;64.178;15.432;2023-03-13T01:30:52;-18.50;99.90
11446;DHT22;5779;64.178;15.432;2023-03-13T01:33:38;-18.60;99.90
11446;DHT22;5779;64.178;15.432;2023-03-13T01:36:26;-18.50;99.90
11446;DHT22;5779;64.178;15.432;2023-03-13T01:39:13;-18.20;99.90
11446;DHT22;5779;64.178;15.432;2023-03-13T01:42:02;-18.10;99.90
11446;DHT22;5779;64.178;15.432;2023-03-13T01:44:50;-18.00;99.90
11446;DHT22;5779;64.178;15.432;2023-03-13T01:47:37;-17.80;99.90
11446;DHT22;5779;64.178;15.432;2023-03-13T01:50:24;-18.10;99.90
11446;DHT22;5779;64.178;15.432;2023-03-13T01:53:11;-18.10;99.90
11446;DHT22;5779;64.178;15.432;2023-03-13T01:55:59;-18.10;99.90
11446;DHT22;5779;64.178;15.432;2023-03-13T01:58:50;-18.10;99.90
11446;DHT22;5779;64.178;15.432;2023-03-13T02:01:38;-17.90;99.90
11446;DHT22;5779;64.178;15.432;2023-03-13T02:04:26;-17.80;99.90
11446;DHT22;5779;64.178;15.432;2023-03-13T02:07:18;-17.70;99.90
11446;DHT22;5779;64.178;15.432;2023-03-13T02:10:07;-17.80;99.90
11446;DHT22;5779;64.178;15.432;2023-03-13T02:12:54;-17.70;99.90
11446;DHT22;5779;64.178;15.432;2023-03-13T02:15:44;-17.80;99.90
11446;DHT22;5779;64.178;15.432;2023-03-13T02:18:31;-17.90;99.90
11446;DHT22;5779;64.178;15.432;2023-03-13T02:21:26;-18.10;99.90
11446;DHT22;5779;64.178;15.432;2023-03-13T02:24:23;-18.10;99.90
11446;DHT22;5779;64.178;15.432;2023-03-13T02:27:14;-18.10;99.90
11446;DHT22;5779;64.178;15.432;2023-03-13T02:30:01;-17.90;99.90
11446;DHT22;5779;64.178;15.432;2023-03-13T02:32:49;-18.00;99.90
11446;DHT22;5779;64.178;15.432;2023-03-13T02:35:36;-17.90;99.90
11446;DHT22;5779;64.178;15.432;2023-03-13T02:38:24;-17.90;99.90
11446;DHT22;5779;64.178;15.432;2023-03-13T02:41:12;-17.80;99.90
11446;DHT22;5779;64.178;15.432;2023-03-13T02:44:01;-17.70;99.90
11446;DHT22;5779;64.178;15.432;2023-03-13T02:46:51;-17.60;99.90
11446;DHT22;5779;64.178;15.432;2023-03-13T02:49:38;-17.80;99.90
11446;DHT22;5779;64.178;15.432;2023-03-13T02:52:28;-17.60;99.90
11446;DHT22;5779;64.178;15.432;2023-03-13T02:55:20;-17.60;99.90
11446;DHT22;5779;64.178;15.432;2023-03-13T02:58:08;-17.60;99.90
11446;DHT22;5779;64.178;15.432;2023-03-13T03:00:56;-18.20;99.90
11446;DHT22;5779;64.178;15.432;2023-03-13T03:03:51;-18.40;99.90
11446;DHT22;5779;64.178;15.432;2023-03-13T03:06:38;-18.40;99.90
11446;DHT22;5779;64.178;15.432;2023-03-13T03:09:25;-18.20;99.90
11446;DHT22;5779;64.178;15.432;2023-03-13T03:12:12;-18.20;99.90
11446;DHT22;5779;64.178;15.432;2023-03-13T03:14:59;-18.20;99.90
11446;DHT22;5779;64.178;15.432;2023-03-13T03:17:47;-18.00;99.90
11446;DHT22;5779;64.178;15.432;2023-03-13T03:20:34;-17.80;99.90
11446;DHT22;5779;64.178;15.432;2023-03-13T03:23:21;-17.80;99.90
11446;DHT22;5779;64.178;15.432;2023-03-13T03:26:08;-17.80;99.90
11446;DHT22;5779;64.178;15.432;2023-03-13T03:28:55;-17.80;99.90
11446;DHT22;5779;64.178;15.432;2023-03-13T03:31:41;-17.70;99.90
11446;DHT22;5779;64.178;15.432;2023-03-13T03:34:30;-17.60;99.90
11446;DHT22;5779;64.178;15.432;2023-03-13T03:37:16;-17.70;99.90
11446;DHT22;5779;64.178;15.432;2023-03-13T03:40:04;-17.70;99.90
11446;DHT22;5779;64.178;15.432;2023-03-13T03:42:52;-17.70;99.90
11446;DHT22;5779;64.178;15.432;2023-03-13T03:45:38;-17.90;99.90
11446;DHT22;5779;64.178;15.432;2023-03-13T03:48:26;-18.10;99.90
11446;DHT22;5779;64.178;15.432;2023-03-13T03:51:14;-18.10;99.90
11446;DHT22;5779;64.178;15.432;2023-03-13T03:54:01;-18.10;99.90
11446;DHT22;5779;64.178;15.432;2023-03-13T03:56:48;-18.10;99.90
11446;DHT22;5779;64.178;15.432;2023-03-13T03:59:35;-18.10;99.90
11446;DHT22;5779;64.178;15.432;2023-03-13T04:02:22;-18.10;99.90
11446;DHT22;5779;64.178;15.432;2023-03-13T04:05:09;-18.10;99.90
11446;DHT22;5779;64.178;15.432;2023-03-13T04:07:57;-18.10;99.90
11446;DHT22;5779;64.178;15.432;2023-03-13T04:10:44;-18.10;99.90
11446;DHT22;5779;64.178;15.432;2023-03-13T04:13:31;-18.00;99.90
11446;DHT22;5779;64.178;15.432;2023-03-13T04:16:18;-18.00;99.90
11446;DHT22;5779;64.178;15.432;2023-03-13T04:19:05;-17.90;99.90
11446;DHT22;5779;64.178;15.432;2023-03-13T04:21:52;-17.90;99.90
11446;DHT22;5779;64.178;15.432;2023-03-13T04:24:40;-18.00;99.90
11446;DHT22;5779;64.178;15.432;2023-03-13T04:27:27;-17.90;99.90
11446;DHT22;5779;64.178;15.432;2023-03-13T04:30:15;-17.80;99.90
11446;DHT22;5779;64.178;15.432;2023-03-13T04:33:02;-17.90;99.90
11446;DHT22;5779;64.178;15.432;2023-03-13T04:35:49;-17.80;99.90
11446;DHT22;5779;64.178;15.432;2023-03-13T04:38:36;-17.90;99.90
11446;DHT22;5779;64.178;15.432;2023-03-13T04:41:24;-17.90;99.90
11446;DHT22;5779;64.178;15.432;2023-03-13T04:44:11;-17.80;99.90
11446;DHT22;5779;64.178;15.432;2023-03-13T04:46:58;-17.80;99.90
11446;DHT22;5779;64.178;15.432;2023-03-13T04:49:45;-17.80;99.90
11446;DHT22;5779;64.178;15.432;2023-03-13T04:52:32;-17.90;99.90
11446;DHT22;5779;64.178;15.432;2023-03-13T04:55:19;-18.00;99.90
11446;DHT22;5779;64.178;15.432;2023-03-13T04:58:07;-18.10;99.90
11446;DHT22;5779;64.178;15.432;2023-03-13T05:00:54;-18.20;99.90
11446;DHT22;5779;64.178;15.432;2023-03-13T05:03:41;-18.10;99.90
11446;DHT22;5779;64.178;15.432;2023-03-13T05:06:28;-17.90;99.90
11446;DHT22;5779;64.178;15.432;2023-03-13T05:09:14;-17.80;99.90
11446;DHT22;5779;64.178;15.432;2023-03-13T05:12:01;-17.50;99.90
11446;DHT22;5779;64.178;15.432;2023-03-13T05:14:49;-17.40;99.90
11446;DHT22;5779;64.178;15.432;2023-03-13T05:17:37;-17.30;99.90
11446;DHT22;5779;64.178;15.432;2023-03-13T05:20:24;-17.30;99.90
11446;DHT22;5779;64.178;15.432;2023-03-13T05:23:11;-17.20;99.90
11446;DHT22;5779;64.178;15.432;2023-03-13T05:25:58;-17.00;99.90
11446;DHT22;5779;64.178;15.432;2023-03-13T05:28:45;-16.80;99.90
11446;DHT22;5779;64.178;15.432;2023-03-13T05:31:33;-16.70;99.90
11446;DHT22;5779;64.178;15.432;2023-03-13T05:34:20;-16.70;99.90
11446;DHT22;5779;64.178;15.432;2023-03-13T05:37:07;-16.60;99.90
11446;DHT22;5779;64.178;15.432;2023-03-13T05:39:54;-16.40;99.90
11446;DHT22;5779;64.178;15.432;2023-03-13T05:42:41;-16.50;99.90
11446;DHT22;5779;64.178;15.432;2023-03-13T05:45:27;-16.30;99.90
11446;DHT22;5779;64.178;15.432;2023-03-13T05:48:16;-16.10;99.90
11446;DHT22;5779;64.178;15.432;2023-03-13T05:51:03;-16.00;99.90
11446;DHT22;5779;64.178;15.432;2023-03-13T05:53:49;-15.80;99.90
11446;DHT22;5779;64.178;15.432;2023-03-13T05:56:36;-15.70;99.90
11446;DHT22;5779;64.178;15.432;2023-03-13T05:59:23;-15.50;99.90
11446;DHT22;5779;64.178;15.432;2023-03-13T06:02:10;-15.50;99.90
11446;DHT22;5779;64.178;15.432;2023-03-13T06:04:58;-15.40;99.90
11446;DHT22;5779;64.178;15.432;2023-03-13T06:07:45;-15.20;99.90
11446;DHT22;5779;64.178;15.432;2023-03-13T06:10:32;-14.90;99.90
11446;DHT22;5779;64.178;15.432;2023-03-13T06:13:19;-14.80;99.90
11446;DHT22;5779;64.178;15.432;2023-03-13T06:16:06;-14.60;99.90
11446;DHT22;5779;64.178;15.432;2023-03-13T06:18:54;-14.50;99.90
11446;DHT22;5779;64.178;15.432;2023-03-13T06:21:43;-14.60;99.90
11446;DHT22;5779;64.178;15.432;2023-03-13T06:24:30;-14.40;99.90
11446;DHT22;5779;64.178;15.432;2023-03-13T06:27:17;-14.30;99.90
11446;DHT22;5779;64.178;15.432;2023-03-13T06:30:05;-14.10;99.90
11446;DHT22;5779;64.178;15.432;2023-03-13T06:32:51;-13.90;99.90
11446;DHT22;5779;64.178;15.432;2023-03-13T06:35:39;-13.80;99.90
11446;DHT22;5779;64.178;15.432;2023-03-13T06:38:28;-13.70;99.90
11446;DHT22;5779;64.178;15.432;2023-03-13T06:41:15;-13.50;99.90
11446;DHT22;5779;64.178;15.432;2023-03-13T06:44:02;-13.30;99.90
11446;DHT22;5779;64.178;15.432;2023-03-13T06:46:49;-13.10;99.90
11446;DHT22;5779;64.178;15.432;2023-03-13T06:49:36;-12.80;99.90
11446;DHT22;5779;64.178;15.432;2023-03-13T06:52:23;-12.70;99.90
11446;DHT22;5779;64.178;15.432;2023-03-13T06:55:12;-12.50;99.90
11446;DHT22;5779;64.178;15.432;2023-03-13T06:57:59;-12.40;99.90
11446;DHT22;5779;64.178;15.432;2023-03-13T07:00:46;-11.90;99.90
11446;DHT22;5779;64.178;15.432;2023-03-13T07:03:33;-11.30;99.90
11446;DHT22;5779;64.178;15.432;2023-03-13T07:06:20;-11.00;99.90
11446;DHT22;5779;64.178;15.432;2023-03-13T07:09:07;-10.60;99.90
11446;DHT22;5779;64.178;15.432;2023-03-13T07:11:56;-10.40;99.90
11446;DHT22;5779;64.178;15.432;2023-03-13T07:14:44;-10.00;99.90
11446;DHT22;5779;64.178;15.432;2023-03-13T07:17:31;-9.60;99.90
11446;DHT22;5779;64.178;15.432;2023-03-13T07:20:18;-9.30;99.90
11446;DHT22;5779;64.178;15.432;2023-03-13T07:23:05;-9.00;99.90
11446;DHT22;5779;64.178;15.432;2023-03-13T07:25:53;-8.80;99.90
11446;DHT22;5779;64.178;15.432;2023-03-13T07:28:41;-8.60;99.90
11446;DHT22;5779;64.178;15.432;2023-03-13T07:31:28;-8.30;99.90
11446;DHT22;5779;64.178;15.432;2023-03-13T07:34:18;-8.20;99.90
11446;DHT22;5779;64.178;15.432;2023-03-13T07:37:05;-7.90;99.90
11446;DHT22;5779;64.178;15.432;2023-03-13T07:39:51;-7.70;99.90
11446;DHT22;5779;64.178;15.432;2023-03-13T07:42:39;-7.40;99.90
11446;DHT22;5779;64.178;15.432;2023-03-13T07:45:28;-7.30;99.90
11446;DHT22;5779;64.178;15.432;2023-03-13T07:48:15;-7.10;99.90
11446;DHT22;5779;64.178;15.432;2023-03-13T07:51:02;-6.90;99.90
11446;DHT22;5779;64.178;15.432;2023-03-13T07:53:49;-6.70;99.90
11446;DHT22;5779;64.178;15.432;2023-03-13T07:56:37;-6.60;99.90
11446;DHT22;5779;64.178;15.432;2023-03-13T07:59:24;-6.40;99.90
11446;DHT22;5779;64.178;15.432;2023-03-13T08:02:12;-6.30;99.90
11446;DHT22;5779;64.178;15.432;2023-03-13T08:05:00;-6.10;99.90
11446;DHT22;5779;64.178;15.432;2023-03-13T08:07:47;-6.00;99.90
11446;DHT22;5779;64.178;15.432;2023-03-13T08:10:34;-5.90;99.90
11446;DHT22;5779;64.178;15.432;2023-03-13T08:13:21;-5.90;99.90
11446;DHT22;5779;64.178;15.432;2023-03-13T08:16:09;-5.90;99.90
11446;DHT22;5779;64.178;15.432;2023-03-13T08:18:59;-5.90;99.90
11446;DHT22;5779;64.178;15.432;2023-03-13T08:21:46;-5.90;99.90
11446;DHT22;5779;64.178;15.432;2023-03-13T08:24:32;-5.90;99.90
11446;DHT22;5779;64.178;15.432;2023-03-13T08:27:20;-5.90;99.90
11446;DHT22;5779;64.178;15.432;2023-03-13T08:30:07;-5.70;99.90
11446;DHT22;5779;64.178;15.432;2023-03-13T08:32:54;-5.50;99.90
11446;DHT22;5779;64.178;15.432;2023-03-13T08:35:43;-5.50;99.90
11446;DHT22;5779;64.178;15.432;2023-03-13T08:38:30;-5.40;99.90
11446;DHT22;5779;64.178;15.432;2023-03-13T08:41:18;-5.20;99.90
11446;DHT22;5779;64.178;15.432;2023-03-13T08:44:06;-5.10;99.90
11446;DHT22;5779;64.178;15.432;2023-03-13T08:46:52;-5.00;99.90
11446;DHT22;5779;64.178;15.432;2023-03-13T08:49:39;-4.90;99.90
11446;DHT22;5779;64.178;15.432;2023-03-13T08:52:27;-4.80;99.90
11446;DHT22;5779;64.178;15.432;2023-03-13T08:55:15;-4.70;99.90
11446;DHT22;5779;64.178;15.432;2023-03-13T08:58:02;-4.70;99.90
11446;DHT22;5779;64.178;15.432;2023-03-13T09:00:49;-4.70;99.90
11446;DHT22;5779;64.178;15.432;2023-03-13T09:03:36;-4.70;99.90
11446;DHT22;5779;64.178;15.432;2023-03-13T09:06:23;-4.70;99.90
11446;DHT22;5779;64.178;15.432;2023-03-13T09:09:11;-4.60;99.90
11446;DHT22;5779;64.178;15.432;2023-03-13T09:11:58;-4.40;99.90
11446;DHT22;5779;64.178;15.432;2023-03-13T09:14:46;-4.40;99.90
11446;DHT22;5779;64.178;15.432;2023-03-13T09:17:33;-4.20;99.90
11446;DHT22;5779;64.178;15.432;2023-03-13T09:20:20;-4.30;99.90
11446;DHT22;5779;64.178;15.432;2023-03-13T09:23:07;-4.40;99.90
11446;DHT22;5779;64.178;15.432;2023-03-13T09:25:56;-4.40;99.90
11446;DHT22;5779;64.178;15.432;2023-03-13T09:28:43;-4.30;99.90
11446;DHT22;5779;64.178;15.432;2023-03-13T09:31:32;-4.20;99.90
11446;DHT22;5779;64.178;15.432;2023-03-13T09:34:18;-4.00;99.90
11446;DHT22;5779;64.178;15.432;2023-03-13T09:37:07;-4.00;99.90
11446;DHT22;5779;64.178;15.432;2023-03-13T09:39:54;-3.90;99.90
11446;DHT22;5779;64.178;15.432;2023-03-13T09:42:46;-3.70;99.90
11446;DHT22;5779;64.178;15.432;2023-03-13T09:45:37;-3.60;99.90
11446;DHT22;5779;64.178;15.432;2023-03-13T09:48:29;-3.40;99.90
11446;DHT22;5779;64.178;15.432;2023-03-13T09:51:20;-3.40;99.90
11446;DHT22;5779;64.178;15.432;2023-03-13T09:54:20;-3.40;99.90
11446;DHT22;5779;64.178;15.432;2023-03-13T09:57:14;-3.70;99.90
11446;DHT22;5779;64.178;15.432;2023-03-13T10:00:06;-3.80;99.90
11446;DHT22;5779;64.178;15.432;2023-03-13T10:03:02;-3.80;99.90
11446;DHT22;5779;64.178;15.432;2023-03-13T10:05:53;-3.80;99.90
11446;DHT22;5779;64.178;15.432;2023-03-13T10:08:40;-3.70;99.90
11446;DHT22;5779;64.178;15.432;2023-03-13T10:11:29;-3.60;99.90
11446;DHT22;5779;64.178;15.432;2023-03-13T10:14:25;-3.70;99.90
11446;DHT22;5779;64.178;15.432;2023-03-13T10:17:22;-3.50;99.90
11446;DHT22;5779;64.178;15.432;2023-03-13T10:20:20;-3.30;99.90
11446;DHT22;5779;64.178;15.432;2023-03-13T10:23:14;-3.40;99.90
11446;DHT22;5779;64.178;15.432;2023-03-13T10:26:02;-3.40;99.90
11446;DHT22;5779;64.178;15.432;2023-03-13T10:28:50;-3.40;99.90
11446;DHT22;5779;64.178;15.432;2023-03-13T10:31:38;-3.40;99.90
11446;DHT22;5779;64.178;15.432;2023-03-13T10:34:28;-3.30;99.90
11446;DHT22;5779;64.178;15.432;2023-03-13T10:37:20;-3.20;99.90
11446;DHT22;5779;64.178;15.432;2023-03-13T10:40:18;-3.20;99.90
11446;DHT22;5779;64.178;15.432;2023-03-13T10:43:16;-3.10;99.90
11446;DHT22;5779;64.178;15.432;2023-03-13T10:46:03;-2.90;99.90
11446;DHT22;5779;64.178;15.432;2023-03-13T10:48:53;-2.90;99.90
11446;DHT22;5779;64.178;15.432;2023-03-13T10:51:46;-2.70;99.90
11446;DHT22;5779;64.178;15.432;2023-03-13T10:54:35;-2.60;99.90
11446;DHT22;5779;64.178;15.432;2023-03-13T10:57:28;-2.70;99.90
11446;DHT22;5779;64.178;15.432;2023-03-13T11:00:28;-2.60;99.90
11446;DHT22;5779;64.178;15.432;2023-03-13T11:03:17;-2.60;99.90
11446;DHT22;5779;64.178;15.432;2023-03-13T11:06:14;-2.70;99.90
11446;DHT22;5779;64.178;15.432;2023-03-13T11:09:13;-2.60;99.90
11446;DHT22;5779;64.178;15.432;2023-03-13T11:12:07;-2.50;99.90
11446;DHT22;5779;64.178;15.432;2023-03-13T11:14:59;-2.40;99.90
11446;DHT22;5779;64.178;15.432;2023-03-13T11:17:51;-2.40;99.90
11446;DHT22;5779;64.178;15.432;2023-03-13T11:20:43;-2.10;99.90
11446;DHT22;5779;64.178;15.432;2023-03-13T11:23:35;-2.00;99.90
11446;DHT22;5779;64.178;15.432;2023-03-13T11:26:28;-2.10;99.90
11446;DHT22;5779;64.178;15.432;2023-03-13T11:29:23;-2.10;99.90
11446;DHT22;5779;64.178;15.432;2023-03-13T11:32:19;-1.90;99.90
11446;DHT22;5779;64.178;15.432;2023-03-13T11:35:19;-1.70;99.90
11446;DHT22;5779;64.178;15.432;2023-03-13T11:38:14;-1.70;99.90
11446;DHT22;5779;64.178;15.432;2023-03-13T11:41:20;-1.80;99.90
11446;DHT22;5779;64.178;15.432;2023-03-13T11:44:23;-1.60;99.90
11446;DHT22;5779;64.178;15.432;2023-03-13T11:47:34;-1.70;99.90
11446;DHT22;5779;64.178;15.432;2023-03-13T11:50:33;-2.00;99.90
11446;DHT22;5779;64.178;15.432;2023-03-13T11:53:32;-2.20;99.90
11446;DHT22;5779;64.178;15.432;2023-03-13T11:56:27;-2.20;99.90
11446;DHT22;5779;64.178;15.432;2023-03-13T11:59:31;-2.30;99.90
11446;DHT22;5779;64.178;15.432;2023-03-13T12:02:25;-2.30;99.90
11446;DHT22;5779;64.178;15.432;2023-03-13T12:05:17;-2.40;99.90
11446;DHT22;5779;64.178;15.432;2023-03-13T12:08:10;-2.40;99.90
11446;DHT22;5779;64.178;15.432;2023-03-13T12:11:03;-2.40;99.90
11446;DHT22;5779;64.178;15.432;2023-03-13T12:13:56;-2.40;99.90
11446;DHT22;5779;64.178;15.432;2023-03-13T12:16:48;-2.20;99.90
11446;DHT22;5779;64.178;15.432;2023-03-13T12:19:44;-1.80;99.90
11446;DHT22;5779;64.178;15.432;2023-03-13T12:22:37;-1.70;99.90
11446;DHT22;5779;64.178;15.432;2023-03-13T12:25:30;-1.80;99.90
11446;DHT22;5779;64.178;15.432;2023-03-13T12:28:24;-1.80;99.90
11446;DHT22;5779;64.178;15.432;2023-03-13T12:31:21;-2.10;99.90
11446;DHT22;5779;64.178;15.432;2023-03-13T12:34:16;-2.00;99.90
11446;DHT22;5779;64.178;15.432;2023-03-13T12:37:10;-1.90;99.90
11446;DHT22;5779;64.178;15.432;2023-03-13T12:40:03;-1.90;99.90
11446;DHT22;5779;64.178;15.432;2023-03-13T12:42:56;-1.80;99.90
11446;DHT22;5779;64.178;15.432;2023-03-13T12:46:05;-1.90;99.90
11446;DHT22;5779;64.178;15.432;2023-03-13T12:49:08;-1.90;99.90
11446;DHT22;5779;64.178;15.432;2023-03-13T12:52:17;-2.10;99.90
11446;DHT22;5779;64.178;15.432;2023-03-13T12:55:43;-2.10;99.90
11446;DHT22;5779;64.178;15.432;2023-03-13T12:58:44;-2.10;99.90
11446;DHT22;5779;64.178;15.432;2023-03-13T13:01:36;-2.00;99.90
11446;DHT22;5779;64.178;15.432;2023-03-13T13:04:27;-1.90;99.90
11446;DHT22;5779;64.178;15.432;2023-03-13T13:07:26;-1.90;99.90
11446;DHT22;5779;64.178;15.432;2023-03-13T13:10:17;-1.90;99.90
11446;DHT22;5779;64.178;15.432;2023-03-13T13:13:28;-2.00;99.90
11446;DHT22;5779;64.178;15.432;2023-03-13T13:16:18;-2.20;99.90
11446;DHT22;5779;64.178;15.432;2023-03-13T13:19:43;-2.20;99.90
11446;DHT22;5779;64.178;15.432;2023-03-13T13:22:49;-2.20;99.90
11446;DHT22;5779;64.178;15.432;2023-03-13T13:25:36;-2.20;99.90
11446;DHT22;5779;64.178;15.432;2023-03-13T13:28:25;-2.10;99.90
11446;DHT22;5779;64.178;15.432;2023-03-13T13:31:44;-2.20;99.90
11446;DHT22;5779;64.178;15.432;2023-03-13T13:34:53;-2.30;99.90
11446;DHT22;5779;64.178;15.432;2023-03-13T13:37:41;-2.20;99.90
11446;DHT22;5779;64.178;15.432;2023-03-13T13:40:30;-2.30;99.90
11446;DHT22;5779;64.178;15.432;2023-03-13T13:43:21;-2.20;99.90
11446;DHT22;5779;64.178;15.432;2023-03-13T13:46:21;-2.40;99.90
11446;DHT22;5779;64.178;15.432;2023-03-13T13:49:14;-2.40;99.90
11446;DHT22;5779;64.178;15.432;2023-03-13T13:52:33;-2.50;99.90
11446;DHT22;5779;64.178;15.432;2023-03-13T13:55:51;-2.30;99.90
11446;DHT22;5779;64.178;15.432;2023-03-13T13:58:42;-2.20;99.90
11446;DHT22;5779;64.178;15.432;2023-03-13T14:01:30;-2.10;99.90
11446;DHT22;5779;64.178;15.432;2023-03-13T14:04:23;-2.20;99.90
11446;DHT22;5779;64.178;15.432;2023-03-13T14:07:16;-2.00;99.90
11446;DHT22;5779;64.178;15.432;2023-03-13T14:10:11;-2.20;99.90
11446;DHT22;5779;64.178;15.432;2023-03-13T14:13:10;-2.40;99.90
11446;DHT22;5779;64.178;15.432;2023-03-13T14:15:57;-2.50;99.90
11446;DHT22;5779;64.178;15.432;2023-03-13T14:18:56;-2.50;99.90
11446;DHT22;5779;64.178;15.432;2023-03-13T14:21:43;-2.60;99.90
11446;DHT22;5779;64.178;15.432;2023-03-13T14:24:30;-2.60;99.90
11446;DHT22;5779;64.178;15.432;2023-03-13T14:27:18;-2.50;99.90
11446;DHT22;5779;64.178;15.432;2023-03-13T14:30:09;-2.50;99.90
11446;DHT22;5779;64.178;15.432;2023-03-13T14:32:56;-2.30;99.90
11446;DHT22;5779;64.178;15.432;2023-03-13T14:35:43;-2.20;99.90
11446;DHT22;5779;64.178;15.432;2023-03-13T14:38:30;-2.30;99.90
11446;DHT22;5779;64.178;15.432;2023-03-13T14:41:23;-2.40;99.90
11446;DHT22;5779;64.178;15.432;2023-03-13T14:44:14;-2.30;99.90
11446;DHT22;5779;64.178;15.432;2023-03-13T14:47:07;-2.40;99.90
11446;DHT22;5779;64.178;15.432;2023-03-13T14:49:56;-2.50;99.90
11446;DHT22;5779;64.178;15.432;2023-03-13T14:52:45;-2.70;99.90
11446;DHT22;5779;64.178;15.432;2023-03-13T14:55:34;-2.70;99.90
11446;DHT22;5779;64.178;15.432;2023-03-13T14:58:27;-2.70;99.90
11446;DHT22;5779;64.178;15.432;2023-03-13T15:01:23;-2.70;99.90
11446;DHT22;5779;64.178;15.432;2023-03-13T15:04:12;-2.70;99.90
11446;DHT22;5779;64.178;15.432;2023-03-13T15:07:01;-2.60;99.90
11446;DHT22;5779;64.178;15.432;2023-03-13T15:09:49;-2.60;99.90
11446;DHT22;5779;64.178;15.432;2023-03-13T15:12:41;-2.60;99.90
11446;DHT22;5779;64.178;15.432;2023-03-13T15:15:28;-2.70;99.90
11446;DHT22;5779;64.178;15.432;2023-03-13T15:18:18;-2.80;99.90
11446;DHT22;5779;64.178;15.432;2023-03-13T15:21:24;-2.70;99.90
11446;DHT22;5779;64.178;15.432;2023-03-13T15:24:13;-2.70;99.90
11446;DHT22;5779;64.178;15.432;2023-03-13T15:27:00;-2.70;99.90
11446;DHT22;5779;64.178;15.432;2023-03-13T15:29:47;-2.60;99.90
11446;DHT22;5779;64.178;15.432;2023-03-13T15:32:36;-3.00;99.90
11446;DHT22;5779;64.178;15.432;2023-03-13T15:35:26;-3.00;99.90
11446;DHT22;5779;64.178;15.432;2023-03-13T15:38:16;-3.40;99.90
11446;DHT22;5779;64.178;15.432;2023-03-13T15:41:03;-3.30;99.90
11446;DHT22;5779;64.178;15.432;2023-03-13T15:43:51;-3.50;99.90
11446;DHT22;5779;64.178;15.432;2023-03-13T15:46:39;-3.50;99.90
11446;DHT22;5779;64.178;15.432;2023-03-13T15:49:26;-3.60;99.90
11446;DHT22;5779;64.178;15.432;2023-03-13T15:52:15;-3.60;99.90
11446;DHT22;5779;64.178;15.432;2023-03-13T15:55:05;-3.50;99.90
11446;DHT22;5779;64.178;15.432;2023-03-13T15:57:52;-3.50;99.90
11446;DHT22;5779;64.178;15.432;2023-03-13T16:00:40;-3.60;99.90
11446;DHT22;5779;64.178;15.432;2023-03-13T16:03:27;-3.50;99.90
11446;DHT22;5779;64.178;15.432;2023-03-13T16:06:16;-3.50;99.90
11446;DHT22;5779;64.178;15.432;2023-03-13T16:09:05;-3.50;99.90
11446;DHT22;5779;64.178;15.432;2023-03-13T16:11:53;-3.60;99.90
11446;DHT22;5779;64.178;15.432;2023-03-13T16:14:40;-3.60;99.90
11446;DHT22;5779;64.178;15.432;2023-03-13T16:17:27;-3.60;99.90
11446;DHT22;5779;64.178;15.432;2023-03-13T16:20:16;-3.70;99.90
11446;DHT22;5779;64.178;15.432;2023-03-13T16:23:05;-3.70;99.90
11446;DHT22;5779;64.178;15.432;2023-03-13T16:25:51;-3.60;99.90
11446;DHT22;5779;64.178;15.432;2023-03-13T16:28:40;-3.50;99.90
11446;DHT22;5779;64.178;15.432;2023-03-13T16:31:28;-3.60;99.90
11446;DHT22;5779;64.178;15.432;2023-03-13T16:34:16;-3.70;99.90
11446;DHT22;5779;64.178;15.432;2023-03-13T16:37:12;-3.70;99.90
11446;DHT22;5779;64.178;15.432;2023-03-13T16:40:01;-3.60;99.90
11446;DHT22;5779;64.178;15.432;2023-03-13T16:42:50;-3.60;99.90
11446;DHT22;5779;64.178;15.432;2023-03-13T16:45:38;-3.50;99.90
11446;DHT22;5779;64.178;15.432;2023-03-13T16:48:25;-3.50;99.90
11446;DHT22;5779;64.178;15.432;2023-03-13T16:51:15;-3.50;99.90
11446;DHT22;5779;64.178;15.432;2023-03-13T16:54:02;-3.70;99.90
11446;DHT22;5779;64.178;15.432;2023-03-13T16:56:50;-3.80;99.90
11446;DHT22;5779;64.178;15.432;2023-03-13T16:59:38;-4.00;99.90
11446;DHT22;5779;64.178;15.432;2023-03-13T17:02:27;-4.10;99.90
11446;DHT22;5779;64.178;15.432;2023-03-13T17:05:14;-4.10;99.90
11446;DHT22;5779;64.178;15.432;2023-03-13T17:08:01;-4.10;99.90
11446;DHT22;5779;64.178;15.432;2023-03-13T17:10:48;-4.20;99.90
11446;DHT22;5779;64.178;15.432;2023-03-13T17:13:35;-4.10;99.90
11446;DHT22;5779;64.178;15.432;2023-03-13T17:16:24;-4.20;99.90
11446;DHT22;5779;64.178;15.432;2023-03-13T17:19:14;-4.10;99.90
11446;DHT22;5779;64.178;15.432;2023-03-13T17:22:00;-4.10;99.90
11446;DHT22;5779;64.178;15.432;2023-03-13T17:24:47;-4.10;99.90
11446;DHT22;5779;64.178;15.432;2023-03-13T17:27:35;-4.10;99.90
11446;DHT22;5779;64.178;15.432;2023-03-13T17:30:24;-3.90;99.90
11446;DHT22;5779;64.178;15.432;2023-03-13T17:33:11;-3.90;99.90
11446;DHT22;5779;64.178;15.432;2023-03-13T17:35:59;-3.90;99.90
11446;DHT22;5779;64.178;15.432;2023-03-13T17:38:47;-4.10;99.90
11446;DHT22;5779;64.178;15.432;2023-03-13T17:41:35;-4.10;99.90
11446;DHT22;5779;64.178;15.432;2023-03-13T17:44:21;-4.10;99.90
11446;DHT22;5779;64.178;15.432;2023-03-13T17:47:16;-4.10;99.90